Time;durP1;ratioP1;P1;durP2;ratioP2;P2;SDS_P1;SDS_P2;PMS_P1;PMS_P2;Temp;Humidity;BMP_temperature;BMP_pressure;BME280_temperature;BME280_humidity;BME280_pressure;Samples;Min_cycle;Max_cycle;Signal;HPM_P1;HPM_P2
2023/08/10 00:02:31;;;;;;;7.50;4.57;;;12.60;99.90;;;;;;2603684;54;20927;31
2023/08/10 00:05:08;;;;;;;12.80;4.55;;;12.60;99.90;;;;;;2603851;54;20850;31
2023/08/10 00:07:42;;;;;;;6.55;4.00;;;12.50;99.90;;;;;;2702238;39;21457;31
2023/08/10 00:10:17;;;;;;;6.97;4.07;;;12.50;99.90;;;;;;2603615;54;20587;31
2023/08/10 00:12:55;;;;;;;11.27;5.35;;;12.40;99.90;;;;;;2603828;54;20825;31
2023/08/10 00:15:29;;;;;;;7.40;4.73;;;12.40;99.90;;;;;;2603672;54;21259;31
2023/08/10 00:18:04;;;;;;;8.05;4.40;;;12.30;99.90;;;;;;2702195;39;21734;31
2023/08/10 00:20:40;;;;;;;8.35;4.90;;;12.40;99.90;;;;;;2603775;54;20896;31
2023/08/10 00:23:14;;;;;;;12.00;5.32;;;12.30;99.90;;;;;;2603717;54;20245;31
2023/08/10 00:25:50;;;;;;;9.25;4.70;;;12.40;99.90;;;;;;2603677;54;20936;31
2023/08/10 00:28:28;;;;;;;12.45;5.28;;;12.30;99.90;;;;;;2622541;46;20046;31
2023/08/10 00:31:05;;;;;;;6.70;4.13;;;12.30;99.90;;;;;;2702013;39;21453;31
2023/08/10 00:33:41;;;;;;;10.50;5.90;;;12.30;99.90;;;;;;2702220;39;20440;31
2023/08/10 00:36:15;;;;;;;8.52;4.53;;;12.30;99.90;;;;;;2603485;54;20964;31
2023/08/10 00:38:50;;;;;;;10.07;4.30;;;12.30;99.90;;;;;;2603345;54;20030;31
2023/08/10 00:41:25;;;;;;;9.60;4.47;;;12.30;99.90;;;;;;2603645;54;20889;31
2023/08/10 00:44:03;;;;;;;10.85;5.65;;;12.30;99.90;;;;;;2603437;54;20147;31
2023/08/10 00:46:38;;;;;;;7.82;4.45;;;12.30;99.90;;;;;;2702135;39;20416;31
2023/08/10 00:49:13;;;;;;;8.25;5.10;;;12.30;99.90;;;;;;2603353;54;20089;31
2023/08/10 00:51:49;;;;;;;9.43;6.20;;;12.20;99.90;;;;;;2603749;54;20140;31
2023/08/10 00:54:23;;;;;;;9.88;5.38;;;12.20;99.90;;;;;;2622330;46;21266;31
2023/08/10 00:56:58;;;;;;;14.80;6.20;;;12.20;99.90;;;;;;2604145;54;21296;31
2023/08/10 00:59:34;;;;;;;9.63;6.17;;;12.20;99.90;;;;;;2603379;54;20227;31
2023/08/10 01:02:06;;;;;;;7.00;5.50;;;12.20;99.90;;;;;;2603441;54;20802;31
2023/08/10 01:04:41;;;;;;;9.27;4.45;;;12.20;99.90;;;;;;2603560;54;20026;31
2023/08/10 01:07:22;;;;;;;10.65;5.55;;;12.20;99.90;;;;;;2621989;46;20785;31
2023/08/10 01:12:31;;;;;;;6.30;3.90;;;12.10;99.90;;;;;;2603518;54;20830;31
2023/08/10 01:15:10;;;;;;;7.88;4.65;;;12.10;99.90;;;;;;2603654;54;20027;31
2023/08/10 01:17:49;;;;;;;7.72;4.93;;;12.20;99.90;;;;;;2621850;46;20027;31
2023/08/10 01:20:22;;;;;;;8.50;4.97;;;12.10;99.90;;;;;;2620252;46;20585;31
2023/08/10 01:23:03;;;;;;;11.30;6.35;;;12.10;99.90;;;;;;2621898;46;20038;31
2023/08/10 01:25:41;;;;;;;10.15;6.07;;;12.10;99.90;;;;;;2603582;54;20883;31
2023/08/10 01:28:15;;;;;;;11.82;5.10;;;12.00;99.90;;;;;;2603638;54;20026;31
2023/08/10 01:30:50;;;;;;;13.45;6.15;;;11.90;99.90;;;;;;2603445;54;20811;31
2023/08/10 01:33:26;;;;;;;9.13;4.78;;;11.90;99.90;;;;;;2622117;46;20230;31
2023/08/10 01:36:00;;;;;;;9.25;5.35;;;11.80;99.90;;;;;;2622233;46;20036;31
2023/08/10 01:38:35;;;;;;;9.07;4.50;;;11.80;99.90;;;;;;2603458;54;20879;31
2023/08/10 01:41:12;;;;;;;9.85;4.80;;;11.80;99.90;;;;;;2603510;54;20243;31
2023/08/10 01:43:46;;;;;;;11.18;5.22;;;11.80;99.90;;;;;;2603329;54;20934;31
2023/08/10 01:46:21;;;;;;;7.40;4.77;;;11.80;99.90;;;;;;2603487;54;20033;31
2023/08/10 01:48:57;;;;;;;11.43;5.50;;;11.80;99.90;;;;;;2603435;54;20027;31
2023/08/10 01:51:32;;;;;;;12.13;5.47;;;11.70;99.90;;;;;;2702076;39;20496;31
2023/08/10 01:54:07;;;;;;;8.18;4.85;;;11.70;99.90;;;;;;2603127;54;20086;31
2023/08/10 01:56:45;;;;;;;7.47;4.40;;;11.70;99.90;;;;;;2603530;54;20924;31
2023/08/10 01:59:19;;;;;;;8.95;4.90;;;11.70;99.90;;;;;;2603241;54;20260;31
2023/08/10 02:01:54;;;;;;;7.65;5.10;;;11.70;99.90;;;;;;2603570;54;20116;31
2023/08/10 02:04:29;;;;;;;10.00;5.27;;;11.70;99.90;;;;;;2622214;46;20834;31
2023/08/10 02:07:04;;;;;;;6.13;3.75;;;11.70;99.90;;;;;;2603483;54;20286;31
2023/08/10 02:09:40;;;;;;;10.75;5.85;;;11.60;99.90;;;;;;2621632;46;20825;31
2023/08/10 02:12:17;;;;;;;11.00;5.38;;;11.60;99.90;;;;;;2621852;46;20844;31
2023/08/10 02:14:51;;;;;;;9.40;5.90;;;11.60;99.90;;;;;;2603277;54;20878;31
2023/08/10 02:17:25;;;;;;;11.75;6.20;;;11.60;99.90;;;;;;2603492;54;20093;31
2023/08/10 02:20:00;;;;;;;11.73;5.77;;;11.60;99.90;;;;;;2603389;54;20885;31
2023/08/10 02:22:34;;;;;;;7.88;5.22;;;11.60;99.90;;;;;;2603304;54;20596;31
2023/08/10 02:25:10;;;;;;;6.80;5.25;;;11.60;99.90;;;;;;2621532;46;20081;31
2023/08/10 02:27:47;;;;;;;10.13;5.53;;;11.60;99.90;;;;;;2720088;39;21447;31
2023/08/10 02:30:21;;;;;;;9.38;5.15;;;11.60;99.90;;;;;;2603246;54;20595;31
2023/08/10 02:32:58;;;;;;;7.80;5.15;;;11.50;99.90;;;;;;2603192;54;20046;31
2023/08/10 02:35:32;;;;;;;8.67;5.10;;;11.60;99.90;;;;;;2603340;54;20026;31
2023/08/10 02:38:06;;;;;;;8.85;5.82;;;11.60;99.90;;;;;;2621825;46;20816;31
2023/08/10 02:40:40;;;;;;;8.55;6.25;;;11.50;99.90;;;;;;2603386;54;20030;31
2023/08/10 02:43:17;;;;;;;7.57;4.32;;;11.50;99.90;;;;;;2621414;46;20897;31
2023/08/10 02:45:52;;;;;;;9.15;5.15;;;11.50;99.90;;;;;;2621710;46;20030;31
2023/08/10 02:48:27;;;;;;;9.25;5.82;;;11.50;99.90;;;;;;2621478;46;20026;31
2023/08/10 02:51:01;;;;;;;7.72;4.47;;;11.50;99.90;;;;;;2603161;54;20884;31
2023/08/10 02:53:35;;;;;;;8.50;5.57;;;11.50;99.90;;;;;;2621749;46;20040;31
2023/08/10 02:56:09;;;;;;;13.00;6.70;;;11.50;99.90;;;;;;2602861;54;20867;31
2023/08/10 02:58:46;;;;;;;8.30;5.30;;;11.50;99.90;;;;;;2603278;54;20301;31
2023/08/10 03:01:21;;;;;;;7.18;4.70;;;11.50;99.90;;;;;;2603312;54;20038;31
2023/08/10 03:03:58;;;;;;;8.63;5.03;;;11.40;99.90;;;;;;2603056;54;20095;31
2023/08/10 03:06:32;;;;;;;7.23;4.43;;;11.40;99.90;;;;;;2603361;54;20031;31
2023/08/10 03:09:06;;;;;;;6.03;3.92;;;11.40;99.90;;;;;;2603273;54;20027;31
2023/08/10 03:11:41;;;;;;;5.23;3.80;;;11.40;99.90;;;;;;2603200;54;20027;31
2023/08/10 03:14:18;;;;;;;8.35;4.60;;;11.40;99.90;;;;;;2602961;54;20023;31
2023/08/10 03:16:52;;;;;;;8.95;4.03;;;11.40;99.90;;;;;;2603142;54;20100;31
2023/08/10 03:19:27;;;;;;;7.15;5.13;;;11.30;99.90;;;;;;2602968;54;20916;31
2023/08/10 03:22:04;;;;;;;6.00;3.90;;;11.30;99.90;;;;;;2602911;54;20057;31
2023/08/10 03:24:39;;;;;;;11.23;6.10;;;11.20;99.90;;;;;;2621368;47;20093;31
2023/08/10 03:27:14;;;;;;;14.90;6.00;;;11.30;99.90;;;;;;2603212;54;20034;31
2023/08/10 03:29:52;;;;;;;5.57;3.60;;;11.20;99.90;;;;;;2602962;54;20092;31
2023/08/10 03:32:26;;;;;;;7.60;3.80;;;11.20;99.90;;;;;;2603014;54;20926;31
2023/08/10 03:35:01;;;;;;;8.40;4.30;;;11.10;99.90;;;;;;2621632;47;20914;31
2023/08/10 03:37:35;;;;;;;9.07;4.80;;;11.10;99.90;;;;;;2602856;54;20031;31
2023/08/10 03:40:11;;;;;;;9.20;4.70;;;11.10;99.90;;;;;;2621519;47;20046;31
2023/08/10 03:42:45;;;;;;;5.68;3.83;;;11.10;99.90;;;;;;2603136;54;20030;31
2023/08/10 03:45:24;;;;;;;6.70;4.40;;;11.10;99.90;;;;;;2603016;54;20081;31
2023/08/10 03:47:58;;;;;;;6.37;3.73;;;11.10;99.90;;;;;;2701257;39;20563;31
2023/08/10 03:50:33;;;;;;;8.63;5.30;;;11.10;99.90;;;;;;2602858;54;20328;31
2023/08/10 03:53:09;;;;;;;11.23;5.47;;;11.00;99.90;;;;;;2602768;54;20821;31
2023/08/10 03:55:43;;;;;;;8.40;4.20;;;11.00;99.90;;;;;;2602819;54;20921;31
2023/08/10 03:58:19;;;;;;;5.57;3.67;;;11.00;99.90;;;;;;2603041;54;21567;31
2023/08/10 04:00:57;;;;;;;5.32;3.80;;;11.00;99.90;;;;;;2603012;54;20030;31
2023/08/10 04:03:32;;;;;;;8.20;5.43;;;11.10;99.90;;;;;;2621369;47;20033;31
2023/08/10 04:06:07;;;;;;;10.07;5.05;;;11.10;99.90;;;;;;2603110;54;20038;31
2023/08/10 04:08:42;;;;;;;9.95;5.43;;;11.10;99.90;;;;;;2603068;54;20038;31
2023/08/10 04:11:20;;;;;;;8.13;4.65;;;11.10;99.90;;;;;;2603742;54;20052;31
2023/08/10 04:13:56;;;;;;;7.80;5.30;;;11.20;99.90;;;;;;2603876;54;20085;31
2023/08/10 04:16:33;;;;;;;10.55;4.95;;;11.30;99.90;;;;;;2720846;39;21452;31
2023/08/10 04:19:08;;;;;;;12.48;5.07;;;11.30;99.90;;;;;;2622183;46;20867;31
2023/08/10 04:21:44;;;;;;;8.88;4.85;;;11.40;99.90;;;;;;2622480;46;20820;31
2023/08/10 04:24:19;;;;;;;6.25;4.32;;;11.50;99.90;;;;;;2603689;54;21321;31
2023/08/10 04:26:54;;;;;;;9.95;5.43;;;11.70;99.90;;;;;;2603965;54;20811;31
2023/08/10 04:29:29;;;;;;;9.37;5.00;;;11.90;99.90;;;;;;2603864;54;20027;31
2023/08/10 04:32:07;;;;;;;9.30;4.35;;;12.10;99.90;;;;;;2603453;54;20109;31
2023/08/10 04:34:44;;;;;;;8.25;4.20;;;12.20;99.90;;;;;;2603549;54;20979;31
2023/08/10 04:37:21;;;;;;;7.65;4.80;;;12.30;99.90;;;;;;2621964;46;20902;31
2023/08/10 04:39:58;;;;;;;8.65;4.50;;;12.30;99.90;;;;;;2603546;54;20033;31
2023/08/10 04:42:33;;;;;;;7.50;4.15;;;12.40;99.90;;;;;;2603623;54;20186;31
2023/08/10 04:45:10;;;;;;;10.85;5.78;;;12.50;99.90;;;;;;2603669;54;25075;31
2023/08/10 04:47:48;;;;;;;10.33;5.40;;;12.70;99.90;;;;;;2603617;54;20027;31
2023/08/10 04:50:23;;;;;;;8.88;5.15;;;12.90;99.90;;;;;;2720454;39;20432;31
2023/08/10 04:52:58;;;;;;;12.75;4.32;;;13.10;99.90;;;;;;2621986;46;20030;31
2023/08/10 04:55:34;;;;;;;9.50;4.65;;;13.50;99.90;;;;;;2701980;39;20440;31
2023/08/10 04:58:09;;;;;;;7.87;4.90;;;13.80;99.90;;;;;;2603797;54;20139;31
2023/08/10 05:00:45;;;;;;;6.65;4.45;;;14.00;99.90;;;;;;2603567;54;20046;31
2023/08/10 05:03:23;;;;;;;8.97;4.63;;;14.30;99.90;;;;;;2603495;54;20097;31
2023/08/10 05:05:58;;;;;;;6.82;4.20;;;14.70;99.90;;;;;;2603391;54;20057;31
2023/08/10 05:08:33;;;;;;;6.10;3.15;;;15.00;99.90;;;;;;2603655;54;20037;31
2023/08/10 05:11:09;;;;;;;7.90;3.53;;;15.20;99.90;;;;;;2603795;54;20915;31
2023/08/10 05:13:41;;;;;;;;;;;15.50;99.90;;;;;;2603308;54;20023;31
2023/08/10 05:16:17;;;;;;;6.10;3.22;;;15.80;99.90;;;;;;2622107;46;20718;31
2023/08/10 05:18:55;;;;;;;8.32;3.15;;;16.00;99.90;;;;;;2603310;54;20985;31
2023/08/10 05:21:31;;;;;;;8.25;3.25;;;16.30;99.90;;;;;;2603095;54;20852;31
2023/08/10 05:24:07;;;;;;;4.70;3.20;;;16.50;99.90;;;;;;2603441;54;20038;31
2023/08/10 05:26:42;;;;;;;6.88;2.65;;;16.80;99.90;;;;;;2603441;54;20038;31
2023/08/10 05:29:15;;;;;;;6.15;2.80;;;16.90;99.90;;;;;;2603327;54;20022;31
2023/08/10 05:31:50;;;;;;;5.30;3.00;;;17.10;99.90;;;;;;2603329;54;20066;31
2023/08/10 05:34:27;;;;;;;6.40;2.75;;;17.30;99.90;;;;;;2603565;54;20932;31
2023/08/10 05:37:02;;;;;;;6.35;2.70;;;17.40;99.90;;;;;;2603458;54;20023;31
2023/08/10 05:39:40;;;;;;;3.83;2.30;;;17.60;99.90;;;;;;2603547;54;20892;31
2023/08/10 05:42:15;;;;;;;5.47;2.20;;;17.80;99.90;;;;;;2603484;54;20025;31
2023/08/10 05:44:50;;;;;;;4.85;2.00;;;17.90;99.90;;;;;;2603253;54;20038;31
2023/08/10 05:47:25;;;;;;;3.50;2.20;;;18.10;99.90;;;;;;2602982;54;20022;31
2023/08/10 05:50:01;;;;;;;4.63;2.80;;;18.30;99.90;;;;;;2620782;46;20048;31
2023/08/10 05:52:37;;;;;;;8.18;2.65;;;18.50;99.90;;;;;;2603405;54;20995;31
2023/08/10 05:55:12;;;;;;;6.75;2.10;;;18.60;99.90;;;;;;2602842;54;20034;31
2023/08/10 05:57:47;;;;;;;5.20;2.20;;;18.80;99.90;;;;;;2603346;54;20125;31
2023/08/10 06:00:21;;;;;;;4.20;2.05;;;18.90;99.90;;;;;;2603565;54;20034;31
2023/08/10 06:02:56;;;;;;;4.43;2.28;;;19.10;99.90;;;;;;2603486;54;20077;31
2023/08/10 06:05:36;;;;;;;7.10;2.20;;;19.30;99.90;;;;;;2603257;54;20108;31
2023/08/10 06:08:11;;;;;;;4.07;1.98;;;19.50;99.90;;;;;;2603459;54;20569;31
2023/08/10 06:10:49;;;;;;;5.10;2.40;;;19.70;99.90;;;;;;2603397;54;20152;31
2023/08/10 06:13:24;;;;;;;8.02;2.45;;;19.90;99.90;;;;;;2603205;54;20038;31
2023/08/10 06:15:59;;;;;;;11.90;2.40;;;20.00;99.90;;;;;;2603436;54;20897;31
2023/08/10 06:18:36;;;;;;;3.33;2.25;;;20.30;99.90;;;;;;2603195;54;20516;31
2023/08/10 06:21:14;;;;;;;5.43;2.47;;;20.40;99.90;;;;;;2603180;54;20045;31
2023/08/10 06:23:53;;;;;;;8.95;2.38;;;20.60;99.90;;;;;;2603336;54;20116;31
2023/08/10 06:26:28;;;;;;;5.80;1.77;;;20.70;99.90;;;;;;2621259;46;20935;31
2023/08/10 06:29:07;;;;;;;6.75;2.50;;;20.80;99.90;;;;;;2621231;46;20789;31
2023/08/10 06:31:40;;;;;;;;;;;20.90;99.90;;;;;;2701653;39;20440;31
2023/08/10 06:34:18;;;;;;;4.20;1.70;;;21.10;99.90;;;;;;2621812;46;19960;31
2023/08/10 06:37:00;;;;;;;4.95;1.75;;;21.30;99.90;;;;;;2603247;54;20027;31
2023/08/10 06:39:37;;;;;;;5.17;1.60;;;21.50;99.90;;;;;;2603101;54;20034;31
2023/08/10 06:42:12;;;;;;;4.10;1.60;;;21.70;99.90;;;;;;2603117;54;20297;31
2023/08/10 06:44:50;;;;;;;3.00;1.60;;;21.80;99.90;;;;;;2603219;54;20076;31
2023/08/10 06:47:26;;;;;;;3.40;1.65;;;22.00;99.90;;;;;;2603150;54;20095;31
2023/08/10 06:50:01;;;;;;;;;;;22.30;99.90;;;;;;2603714;54;20034;31
2023/08/10 06:52:41;;;;;;;5.15;1.55;;;22.40;99.90;;;;;;2603425;54;20748;31
2023/08/10 06:55:16;;;;;;;4.82;1.45;;;22.60;99.90;;;;;;2603269;54;20027;31
2023/08/10 06:57:53;;;;;;;3.28;0.95;;;22.80;99.90;;;;;;2603429;54;20030;31
2023/08/10 07:00:28;;;;;;;4.45;1.20;;;22.90;99.90;;;;;;2603495;54;20037;31
2023/08/10 07:03:06;;;;;;;4.70;1.00;;;23.00;99.90;;;;;;2621405;46;20854;31
2023/08/10 07:05:41;;;;;;;4.10;1.33;;;23.30;99.90;;;;;;2602967;54;20104;31
2023/08/10 07:08:19;;;;;;;2.15;0.90;;;23.50;99.90;;;;;;2621998;46;20097;31
2023/08/10 07:10:54;;;;;;;2.08;1.02;;;23.60;99.90;;;;;;2603294;54;20033;31
2023/08/10 07:13:30;;;;;;;1.80;1.00;;;23.70;99.90;;;;;;2603186;54;20026;31
2023/08/10 07:16:06;;;;;;;1.60;0.80;;;23.80;99.90;;;;;;2603207;54;20255;31
2023/08/10 07:18:43;;;;;;;3.45;1.30;;;23.90;99.90;;;;;;2603084;54;20273;31
2023/08/10 07:21:17;;;;;;;3.58;1.20;;;24.10;99.90;;;;;;2603002;54;20813;31
2023/08/10 07:23:58;;;;;;;2.90;0.80;;;24.20;99.90;;;;;;2603318;54;20026;31
2023/08/10 07:26:35;;;;;;;4.80;1.67;;;24.40;99.90;;;;;;2603186;54;20050;31
2023/08/10 07:29:14;;;;;;;2.65;1.10;;;24.40;99.90;;;;;;2621561;47;20023;31
2023/08/10 07:31:52;;;;;;;4.90;1.13;;;24.60;99.90;;;;;;2603102;54;24067;31
2023/08/10 07:34:30;;;;;;;3.42;1.15;;;24.80;99.90;;;;;;2621256;47;20816;31
2023/08/10 07:37:06;;;;;;;2.37;1.00;;;25.00;99.90;;;;;;2603142;54;20029;31
2023/08/10 07:39:47;;;;;;;3.38;1.05;;;25.20;99.90;;;;;;2610182;47;21172;31
2023/08/10 07:42:24;;;;;;;3.17;1.13;;;25.30;99.90;;;;;;2603706;54;20849;31
2023/08/10 07:45:02;;;;;;;1.80;0.63;;;25.40;99.90;;;;;;2603814;54;20989;31
2023/08/10 07:47:44;;;;;;;2.20;0.90;;;25.50;99.90;;;;;;2622369;46;20057;31
2023/08/10 07:50:23;;;;;;;3.55;1.00;;;25.50;99.90;;;;;;2604148;54;20022;31
2023/08/10 07:52:59;;;;;;;3.80;1.37;;;25.60;99.90;;;;;;2603761;54;20664;31
2023/08/10 07:55:39;;;;;;;4.03;0.98;;;25.80;99.90;;;;;;2603890;54;20123;31
2023/08/10 07:58:19;;;;;;;3.30;1.00;;;25.90;99.90;;;;;;2602880;54;20046;31
2023/08/10 08:00:56;;;;;;;2.63;1.02;;;26.00;99.90;;;;;;2603701;54;22409;31
2023/08/10 08:03:34;;;;;;;3.95;1.10;;;26.10;99.90;;;;;;2622350;46;20583;31
2023/08/10 08:06:10;;;;;;;1.95;0.90;;;26.30;99.90;;;;;;2622201;46;20024;31
2023/08/10 08:08:48;;;;;;;3.57;1.33;;;26.30;99.90;;;;;;2602951;54;20166;31
2023/08/10 08:11:28;;;;;;;3.75;0.90;;;26.40;99.90;;;;;;2603771;54;20027;31
2023/08/10 08:14:07;;;;;;;2.50;0.90;;;26.50;99.30;;;;;;2603601;54;20026;31
2023/08/10 08:16:45;;;;;;;3.53;0.73;;;26.50;99.90;;;;;;2602808;54;20023;31
2023/08/10 08:19:26;;;;;;;4.78;1.00;;;26.50;99.90;;;;;;2603523;54;20033;31
2023/08/10 08:22:03;;;;;;;4.70;1.15;;;26.50;99.20;;;;;;2622509;46;20034;31
2023/08/10 08:24:41;;;;;;;3.25;0.65;;;26.60;98.70;;;;;;2603786;54;20081;31
2023/08/10 08:27:22;;;;;;;2.42;0.90;;;26.80;97.80;;;;;;2622066;46;20061;31
2023/08/10 08:29:59;;;;;;;1.95;0.80;;;26.90;97.20;;;;;;2603234;54;20046;31
2023/08/10 08:32:35;;;;;;;2.78;0.90;;;27.10;97.30;;;;;;2603581;54;20057;31
2023/08/10 08:35:29;;;;;;;2.20;0.80;;;27.00;96.50;;;;;;2603509;54;20041;31
2023/08/10 08:38:07;;;;;;;4.15;0.90;;;27.10;95.30;;;;;;2602913;54;19942;31
2023/08/10 08:40:44;;;;;;;4.88;0.68;;;27.10;96.10;;;;;;2603558;54;20504;31
2023/08/10 08:43:27;;;;;;;3.50;1.55;;;27.10;95.50;;;;;;2702200;39;21421;31
2023/08/10 08:46:01;;;;;;;3.20;1.05;;;27.20;94.10;;;;;;2603423;54;20793;31
2023/08/10 08:48:37;;;;;;;3.55;0.90;;;27.40;95.10;;;;;;2603385;54;20048;31
2023/08/10 08:51:16;;;;;;;4.22;0.93;;;27.50;95.50;;;;;;2602734;54;20180;31
2023/08/10 08:53:52;;;;;;;3.50;0.60;;;27.50;93.70;;;;;;2603333;54;20052;31
2023/08/10 08:56:26;;;;;;;5.83;1.00;;;27.40;95.10;;;;;;2603317;54;20038;31
2023/08/10 08:59:08;;;;;;;2.57;1.07;;;27.60;93.90;;;;;;2603508;54;20257;31
2023/08/10 09:01:49;;;;;;;4.53;1.20;;;27.70;92.60;;;;;;2603437;54;20717;31
2023/08/10 09:04:34;;;;;;;2.55;0.85;;;27.80;92.30;;;;;;2701852;39;20378;31
2023/08/10 09:07:10;;;;;;;2.20;0.80;;;28.00;93.20;;;;;;2622060;46;20030;31
2023/08/10 09:09:46;;;;;;;2.08;0.68;;;28.00;93.70;;;;;;2602846;54;20961;31
2023/08/10 09:12:38;;;;;;;5.03;1.13;;;28.00;92.60;;;;;;2602918;54;20030;31
2023/08/10 09:15:27;;;;;;;2.37;0.90;;;27.80;90.60;;;;;;2621990;46;20042;31
2023/08/10 09:18:10;;;;;;;2.40;0.80;;;27.90;89.80;;;;;;2602838;54;20878;31
2023/08/10 09:20:51;;;;;;;2.22;0.60;;;28.00;91.70;;;;;;2603554;54;20675;31
2023/08/10 09:23:28;;;;;;;2.80;0.80;;;28.20;89.80;;;;;;2603382;54;19935;31
2023/08/10 09:26:11;;;;;;;4.43;0.75;;;28.30;91.10;;;;;;2603368;54;20116;31
2023/08/10 09:28:46;;;;;;;2.70;1.08;;;28.30;87.60;;;;;;2603533;54;20049;31
2023/08/10 09:31:25;;;;;;;3.17;0.60;;;28.40;90.10;;;;;;2702187;39;20486;31
2023/08/10 09:34:13;;;;;;;3.58;0.80;;;28.50;88.80;;;;;;2603597;54;20642;31
2023/08/10 09:36:55;;;;;;;3.10;0.80;;;28.60;86.00;;;;;;2621785;46;20882;31
2023/08/10 09:42:09;;;;;;;2.60;0.57;;;28.70;88.90;;;;;;2603378;54;20053;31
2023/08/10 09:44:47;;;;;;;3.60;0.80;;;28.80;86.90;;;;;;2603473;54;20097;31
2023/08/10 09:47:25;;;;;;;3.85;0.80;;;28.80;87.30;;;;;;2603535;54;20056;31
2023/08/10 09:50:05;;;;;;;;;;;28.80;87.00;;;;;;2603512;54;20895;31
2023/08/10 09:52:42;;;;;;;2.58;0.70;;;28.80;85.50;;;;;;2621716;46;19941;31
2023/08/10 09:55:21;;;;;;;1.40;0.68;;;29.00;82.90;;;;;;2603662;54;20830;31
2023/08/10 09:57:57;;;;;;;3.30;0.73;;;28.90;82.10;;;;;;2621811;46;20033;31
2023/08/10 10:00:36;;;;;;;3.25;0.85;;;29.00;82.50;;;;;;2602641;54;20965;31
2023/08/10 10:03:14;;;;;;;2.50;0.70;;;29.00;82.30;;;;;;2603499;54;20038;31
2023/08/10 10:05:57;;;;;;;1.70;0.70;;;29.20;80.90;;;;;;2603174;54;20140;31
2023/08/10 10:08:34;;;;;;;4.43;0.73;;;29.20;81.20;;;;;;2621846;46;20099;31
2023/08/10 10:11:13;;;;;;;2.20;0.90;;;29.20;85.90;;;;;;2612639;46;20231;31
2023/08/10 10:13:49;;;;;;;3.20;1.00;;;29.30;88.10;;;;;;2603428;54;20051;31
2023/08/10 10:16:25;;;;;;;4.35;1.10;;;29.30;88.80;;;;;;2616286;46;20048;31
2023/08/10 10:19:02;;;;;;;3.10;0.60;;;29.10;85.20;;;;;;2602739;54;20033;31
2023/08/10 10:21:47;;;;;;;5.20;1.10;;;29.10;87.40;;;;;;2603324;54;22120;31
2023/08/10 10:24:22;;;;;;;2.05;0.63;;;29.10;84.60;;;;;;2603270;54;20038;31
2023/08/10 10:27:01;;;;;;;3.50;0.77;;;28.90;85.10;;;;;;2603392;54;20905;31
2023/08/10 10:29:46;;;;;;;1.60;0.73;;;28.60;85.10;;;;;;2622138;46;20556;31
2023/08/10 10:32:33;;;;;;;5.65;0.88;;;28.30;85.50;;;;;;2603461;54;20914;31
2023/08/10 10:35:13;;;;;;;2.55;0.80;;;28.00;84.40;;;;;;2603157;54;20867;31
2023/08/10 10:37:56;;;;;;;2.75;0.63;;;28.00;85.20;;;;;;2603353;54;20839;31
2023/08/10 10:40:33;;;;;;;3.22;0.80;;;27.90;82.40;;;;;;2621768;46;20022;31
2023/08/10 10:43:40;;;;;;;3.58;0.73;;;28.00;81.40;;;;;;2602781;54;20092;31
2023/08/10 10:46:47;;;;;;;6.47;1.27;;;27.90;80.80;;;;;;2602762;54;20893;31
2023/08/10 10:49:23;;;;;;;2.93;0.50;;;27.90;81.60;;;;;;2621947;46;20053;31
2023/08/10 10:52:02;;;;;;;3.25;0.80;;;28.00;83.00;;;;;;2603216;54;20152;31
2023/08/10 10:54:42;;;;;;;2.90;0.80;;;28.10;85.30;;;;;;2603249;54;20865;31
2023/08/10 10:57:21;;;;;;;1.65;0.80;;;28.10;82.00;;;;;;2603055;54;20026;31
2023/08/10 11:00:01;;;;;;;5.00;0.70;;;28.20;81.70;;;;;;2603391;54;20029;31
2023/08/10 11:02:40;;;;;;;2.25;0.70;;;28.30;84.70;;;;;;2603031;54;20026;31
2023/08/10 11:05:19;;;;;;;3.50;0.98;;;28.40;82.70;;;;;;2621602;46;20050;31
2023/08/10 11:08:03;;;;;;;2.63;0.75;;;28.20;80.50;;;;;;2603301;54;20052;31
2023/08/10 11:10:44;;;;;;;1.45;0.60;;;28.00;80.90;;;;;;2603138;54;20038;31
2023/08/10 11:13:26;;;;;;;2.93;0.70;;;27.70;81.40;;;;;;2701594;39;20501;31
2023/08/10 11:16:02;;;;;;;2.45;0.80;;;27.30;82.20;;;;;;2603179;54;20821;31
2023/08/10 11:18:38;;;;;;;3.80;0.70;;;27.00;84.10;;;;;;2603864;54;20920;31
2023/08/10 11:21:19;;;;;;;9.17;0.90;;;26.70;85.40;;;;;;2604019;54;20643;31
2023/08/10 11:23:59;;;;;;;2.42;0.60;;;26.40;83.50;;;;;;2603774;54;20144;31
2023/08/10 11:26:31;;;;;;;2.33;0.67;;;26.20;82.20;;;;;;2603722;54;20624;31
2023/08/10 11:29:14;;;;;;;2.97;0.70;;;26.10;82.00;;;;;;2604003;54;20027;31
2023/08/10 11:31:50;;;;;;;1.85;0.55;;;25.80;82.50;;;;;;2622622;46;20064;31
2023/08/10 11:34:30;;;;;;;1.67;0.63;;;25.80;81.70;;;;;;2603933;54;20045;31
2023/08/10 11:37:08;;;;;;;2.65;0.80;;;25.80;83.20;;;;;;2603623;54;20876;31
2023/08/10 11:39:47;;;;;;;2.03;0.60;;;25.90;84.80;;;;;;2603731;54;20861;31
2023/08/10 11:42:27;;;;;;;1.73;0.70;;;26.10;85.20;;;;;;2603045;54;21002;31
2023/08/10 11:45:16;;;;;;;2.67;0.60;;;26.20;83.90;;;;;;2603063;54;20033;31
2023/08/10 11:47:57;;;;;;;0.98;0.57;;;26.30;86.20;;;;;;2603504;54;20937;31
2023/08/10 11:50:38;;;;;;;1.83;0.60;;;26.20;83.60;;;;;;2603811;54;20052;31
2023/08/10 11:53:15;;;;;;;2.30;0.50;;;26.00;84.20;;;;;;2603709;54;20022;31
2023/08/10 11:55:54;;;;;;;2.97;0.70;;;25.80;83.10;;;;;;2603906;54;20032;31
2023/08/10 11:58:36;;;;;;;3.00;0.60;;;25.60;84.90;;;;;;2604041;54;20054;31
2023/08/10 12:01:20;;;;;;;1.60;0.75;;;25.50;84.90;;;;;;2603745;54;20883;31
2023/08/10 12:03:56;;;;;;;2.35;0.70;;;25.30;86.20;;;;;;2603795;54;20053;31
2023/08/10 12:06:37;;;;;;;2.88;0.57;;;25.10;87.00;;;;;;2622482;46;20053;31
2023/08/10 12:09:16;;;;;;;1.92;0.95;;;25.00;87.00;;;;;;2608058;46;20906;31
2023/08/10 12:11:54;;;;;;;2.60;0.60;;;25.00;85.20;;;;;;2603945;54;20026;31
2023/08/10 12:14:32;;;;;;;2.92;0.80;;;25.00;83.40;;;;;;2603673;54;20048;31
2023/08/10 12:17:12;;;;;;;2.60;0.60;;;25.00;87.30;;;;;;2603829;54;20770;31
2023/08/10 12:19:48;;;;;;;1.95;0.95;;;25.00;88.60;;;;;;2603769;54;20096;31
2023/08/10 12:22:29;;;;;;;2.30;0.67;;;25.00;85.00;;;;;;2622140;46;20026;31
2023/08/10 12:25:05;;;;;;;1.85;0.52;;;25.00;83.60;;;;;;2603983;54;20026;31
2023/08/10 12:27:43;;;;;;;2.78;0.80;;;25.00;86.10;;;;;;2622284;46;20898;31
2023/08/10 12:30:22;;;;;;;4.03;1.08;;;24.90;88.80;;;;;;2603683;54;20837;31
2023/08/10 12:33:02;;;;;;;3.60;0.70;;;24.90;89.90;;;;;;2603129;54;20863;31
2023/08/10 12:35:38;;;;;;;3.42;0.60;;;24.80;88.10;;;;;;2603807;54;20938;31
2023/08/10 12:38:17;;;;;;;7.30;0.82;;;24.70;88.70;;;;;;2603863;54;20056;31
2023/08/10 12:40:54;;;;;;;5.13;1.00;;;24.70;88.60;;;;;;2603842;54;20038;31
2023/08/10 12:43:32;;;;;;;3.70;0.77;;;24.60;89.40;;;;;;2603426;54;20156;31
2023/08/10 12:46:09;;;;;;;1.20;0.40;;;24.60;90.20;;;;;;2603718;54;20872;31
2023/08/10 12:48:49;;;;;;;1.77;0.80;;;24.60;87.90;;;;;;2602921;54;20091;31
2023/08/10 12:51:27;;;;;;;3.13;0.70;;;24.50;88.70;;;;;;2603815;54;20077;31
2023/08/10 12:54:07;;;;;;;1.60;0.50;;;24.40;90.80;;;;;;2622563;46;20023;31
2023/08/10 12:56:44;;;;;;;2.88;0.50;;;24.40;87.90;;;;;;2603817;54;20069;31
2023/08/10 12:59:24;;;;;;;1.67;0.60;;;24.40;89.10;;;;;;2603300;54;20030;31
2023/08/10 13:02:03;;;;;;;3.25;0.90;;;24.40;87.80;;;;;;2622056;46;20880;31
2023/08/10 13:04:44;;;;;;;7.10;0.60;;;24.50;89.30;;;;;;2603635;54;20131;31
2023/08/10 13:07:25;;;;;;;2.70;1.05;;;24.50;87.30;;;;;;2622005;46;20037;31
2023/08/10 13:10:02;;;;;;;3.15;0.60;;;24.50;89.80;;;;;;2603535;54;20076;31
2023/08/10 13:12:41;;;;;;;1.10;0.50;;;24.60;85.50;;;;;;2603659;54;19938;31
2023/08/10 13:15:27;;;;;;;2.10;0.70;;;24.80;88.60;;;;;;2603561;54;20977;31
2023/08/10 13:18:03;;;;;;;3.10;0.80;;;24.80;87.90;;;;;;2602945;54;20038;31
2023/08/10 13:20:42;;;;;;;2.90;0.57;;;24.90;86.60;;;;;;2603722;54;20023;31
2023/08/10 13:23:21;;;;;;;5.20;0.70;;;25.10;86.00;;;;;;2621791;46;20033;31
2023/08/10 13:26:00;;;;;;;2.20;0.60;;;25.10;83.70;;;;;;2603362;54;20250;31
2023/08/10 13:28:37;;;;;;;1.15;0.55;;;25.20;83.80;;;;;;2603458;54;20116;31
2023/08/10 13:31:19;;;;;;;2.30;0.80;;;25.10;83.80;;;;;;2603494;54;20936;31
2023/08/10 13:33:55;;;;;;;1.92;0.50;;;25.10;83.60;;;;;;2621681;46;20050;31
2023/08/10 13:36:33;;;;;;;2.15;0.60;;;25.10;83.80;;;;;;2622284;46;20967;31
2023/08/10 13:39:14;;;;;;;1.88;0.77;;;25.10;87.00;;;;;;2603279;54;20902;31
2023/08/10 13:41:51;;;;;;;2.85;0.63;;;25.00;85.80;;;;;;2603596;54;20027;31
2023/08/10 13:44:29;;;;;;;1.90;0.65;;;25.00;84.60;;;;;;2603556;54;20081;31
2023/08/10 13:47:07;;;;;;;2.72;0.50;;;24.90;84.50;;;;;;2603674;54;20026;31
2023/08/10 13:49:44;;;;;;;3.15;0.85;;;24.90;83.10;;;;;;2603549;54;20795;31
2023/08/10 13:52:35;;;;;;;3.53;0.80;;;24.80;84.90;;;;;;2603391;54;20034;31
2023/08/10 13:55:16;;;;;;;3.40;0.90;;;24.80;84.60;;;;;;2603428;54;20038;31
2023/08/10 13:57:53;;;;;;;3.28;0.77;;;24.70;85.50;;;;;;2603678;54;20072;31